Time;durP1;ratioP1;P1;durP2;ratioP2;P2;SDS_P1;SDS_P2;PMS_P1;PMS_P2;Temp;Humidity;BMP_temperature;BMP_pressure;BME280_temperature;BME280_humidity;BME280_pressure;Samples;Min_cycle;Max_cycle;Signal;HPM_P1;HPM_P2
2023/05/27 00:02:16;;;;;;;10.10;3.35;;;8.90;99.90;;;;;;5039670;28;20049;-57
2023/05/27 00:04:42;;;;;;;8.75;3.67;;;8.90;99.90;;;;;;5041652;28;20056;-57
2023/05/27 00:07:08;;;;;;;15.95;4.25;;;8.80;99.90;;;;;;5042544;28;20056;-58
2023/05/27 00:09:33;;;;;;;14.18;4.05;;;8.80;99.90;;;;;;5039424;28;20045;-57
2023/05/27 00:12:00;;;;;;;13.15;3.97;;;8.80;99.90;;;;;;5034508;28;20056;-56
2023/05/27 00:14:26;;;;;;;12.05;4.30;;;8.80;99.90;;;;;;5035799;28;20033;-57
2023/05/27 00:16:51;;;;;;;13.02;3.80;;;8.70;99.90;;;;;;5039650;28;20034;-57
2023/05/27 00:19:17;;;;;;;12.85;3.58;;;8.70;99.90;;;;;;5042678;28;20052;-57
2023/05/27 00:21:43;;;;;;;11.35;3.47;;;8.70;99.90;;;;;;5039233;28;20409;-57
2023/05/27 00:24:10;;;;;;;11.80;3.25;;;8.70;99.90;;;;;;5036782;28;20025;-58
2023/05/27 00:26:36;;;;;;;12.00;3.20;;;8.70;99.90;;;;;;5039991;28;20048;-57
2023/05/27 00:29:02;;;;;;;10.82;3.38;;;8.70;99.90;;;;;;5035873;28;20501;-57
2023/05/27 00:31:27;;;;;;;12.85;3.80;;;8.60;99.90;;;;;;5040271;28;20037;-57
2023/05/27 00:33:53;;;;;;;8.68;3.30;;;8.60;99.90;;;;;;5035280;28;20041;-57
2023/05/27 00:36:19;;;;;;;13.85;3.60;;;8.50;99.90;;;;;;5037455;28;20037;-56
2023/05/27 00:38:45;;;;;;;18.08;4.47;;;8.50;99.90;;;;;;5041636;28;20076;-56
2023/05/27 00:41:12;;;;;;;11.52;3.40;;;8.50;99.90;;;;;;5033305;28;20599;-57
2023/05/27 00:43:38;;;;;;;14.43;4.85;;;8.50;99.90;;;;;;5035690;28;20124;-57
2023/05/27 00:46:04;;;;;;;10.15;3.53;;;8.40;99.90;;;;;;5028792;28;20065;-57
2023/05/27 00:48:30;;;;;;;13.57;4.30;;;8.40;99.90;;;;;;5034963;28;20392;-57
2023/05/27 00:50:56;;;;;;;14.05;4.10;;;8.40;99.90;;;;;;5034387;28;20037;-58
2023/05/27 00:53:23;;;;;;;14.77;3.90;;;8.40;99.90;;;;;;5032969;28;20045;-58
2023/05/27 00:55:53;;;;;;;20.08;5.10;;;8.40;99.90;;;;;;5025400;28;20501;-57
2023/05/27 00:58:21;;;;;;;19.83;4.60;;;8.30;99.90;;;;;;5039628;28;20049;-56
2023/05/27 01:00:50;;;;;;;17.13;4.97;;;8.30;99.90;;;;;;5034566;28;20053;-57
2023/05/27 01:03:16;;;;;;;16.20;4.65;;;8.20;99.90;;;;;;5031745;28;20053;-56
2023/05/27 01:05:42;;;;;;;14.88;4.45;;;8.30;99.90;;;;;;5027923;28;20061;-57
2023/05/27 01:08:11;;;;;;;16.67;4.45;;;8.20;99.90;;;;;;5032720;28;20052;-57
2023/05/27 01:11:05;;;;;;;12.43;4.03;;;8.20;99.90;;;;;;5037086;28;20168;-57
2023/05/27 01:13:36;;;;;;;;;;;8.20;99.90;;;;;;5040556;28;20080;-58
2023/05/27 01:16:06;;;;;;;15.93;4.40;;;8.20;99.90;;;;;;5031717;28;19932;-57
2023/05/27 01:18:33;;;;;;;16.70;4.38;;;8.10;99.90;;;;;;5036295;28;20502;-57
2023/05/27 01:21:09;;;;;;;15.60;4.70;;;8.10;99.90;;;;;;5032238;28;20083;-55
2023/05/27 01:23:38;;;;;;;17.73;4.15;;;8.10;99.90;;;;;;5035118;28;20497;-57
2023/05/27 01:26:05;;;;;;;25.10;4.43;;;8.10;99.90;;;;;;5036344;28;20049;-57
2023/05/27 01:28:31;;;;;;;11.82;4.05;;;8.10;99.90;;;;;;5034945;28;20127;-56
2023/05/27 01:31:04;;;;;;;16.38;4.80;;;8.00;99.90;;;;;;5029768;28;20045;-56
2023/05/27 01:33:35;;;;;;;14.38;4.45;;;8.00;99.90;;;;;;5033342;28;20033;-57
2023/05/27 01:36:08;;;;;;;16.70;5.60;;;8.00;99.90;;;;;;5034028;28;20122;-57
2023/05/27 01:38:35;;;;;;;15.40;4.30;;;8.00;99.90;;;;;;5034384;28;20498;-56
2023/05/27 01:41:01;;;;;;;11.55;4.45;;;8.00;99.90;;;;;;5038315;28;20524;-57
2023/05/27 01:43:27;;;;;;;15.82;4.80;;;8.00;99.90;;;;;;5037548;28;20048;-58
2023/05/27 01:45:53;;;;;;;18.60;4.35;;;8.00;99.90;;;;;;5032855;28;20529;-58
2023/05/27 01:48:19;;;;;;;18.92;5.07;;;8.00;99.90;;;;;;5036725;28;20129;-58
2023/05/27 01:50:45;;;;;;;10.70;4.43;;;8.00;99.90;;;;;;5035842;28;20045;-56
2023/05/27 01:53:12;;;;;;;14.90;4.25;;;8.00;99.90;;;;;;5038753;28;20047;-57
2023/05/27 01:55:38;;;;;;;10.35;3.75;;;8.00;99.90;;;;;;5029103;28;20049;-57
2023/05/27 01:58:04;;;;;;;8.32;3.33;;;8.00;99.90;;;;;;5031860;28;20052;-56
2023/05/27 02:00:30;;;;;;;11.38;4.13;;;8.00;99.90;;;;;;5030289;28;20072;-57
2023/05/27 02:02:55;;;;;;;11.98;4.05;;;8.00;99.90;;;;;;5033229;28;20049;-57
2023/05/27 02:05:21;;;;;;;11.13;3.78;;;7.90;99.90;;;;;;5025382;28;20037;-56
2023/05/27 02:07:47;;;;;;;16.55;4.20;;;8.00;99.90;;;;;;5033333;28;26168;-57
2023/05/27 02:10:13;;;;;;;14.27;3.95;;;7.90;99.90;;;;;;5034462;28;20317;-57
2023/05/27 02:12:38;;;;;;;16.33;4.70;;;8.00;99.90;;;;;;5037441;28;20033;-56
2023/05/27 02:15:05;;;;;;;15.68;4.70;;;8.00;99.90;;;;;;5023404;28;20136;-57
2023/05/27 02:17:30;;;;;;;14.32;4.40;;;8.00;99.90;;;;;;5030388;28;20058;-57
2023/05/27 02:19:56;;;;;;;13.98;4.60;;;8.00;99.90;;;;;;5037749;28;20052;-57
2023/05/27 02:22:22;;;;;;;15.95;4.40;;;8.00;99.90;;;;;;5034161;28;20045;-57
2023/05/27 02:24:48;;;;;;;14.95;4.10;;;8.00;99.90;;;;;;5035387;28;20476;-56
2023/05/27 02:27:14;;;;;;;15.40;3.80;;;8.00;99.90;;;;;;5036832;28;20048;-58
2023/05/27 02:29:40;;;;;;;13.27;3.70;;;8.00;99.90;;;;;;5029088;28;20716;-57
2023/05/27 02:32:06;;;;;;;14.07;4.53;;;8.00;99.90;;;;;;5037850;28;20032;-56
2023/05/27 02:34:36;;;;;;;9.93;3.50;;;8.00;99.90;;;;;;5033141;28;20446;-57
2023/05/27 02:37:02;;;;;;;14.90;4.35;;;8.00;99.90;;;;;;5031175;28;20539;-58
2023/05/27 02:39:28;;;;;;;15.02;4.57;;;8.00;99.90;;;;;;5034846;28;20128;-57
2023/05/27 02:41:53;;;;;;;17.30;4.57;;;8.00;99.90;;;;;;5035265;28;20128;-56
2023/05/27 02:44:19;;;;;;;14.82;4.75;;;8.10;99.90;;;;;;5033162;28;20041;-58
2023/05/27 02:46:45;;;;;;;18.83;4.75;;;8.10;99.90;;;;;;5042756;28;20037;-57
2023/05/27 02:49:10;;;;;;;20.05;5.03;;;8.10;99.90;;;;;;5032704;28;20417;-57
2023/05/27 02:51:36;;;;;;;20.30;5.07;;;8.10;99.90;;;;;;5032549;28;20034;-57
2023/05/27 02:54:02;;;;;;;19.50;5.05;;;8.20;99.90;;;;;;5033937;28;20137;-57
2023/05/27 02:56:28;;;;;;;18.77;5.07;;;8.20;99.90;;;;;;5032386;28;20037;-58
2023/05/27 02:58:53;;;;;;;22.92;5.57;;;8.20;99.90;;;;;;5033933;28;20045;-58
2023/05/27 03:01:19;;;;;;;16.67;5.05;;;8.20;99.90;;;;;;5036191;28;20045;-58
2023/05/27 03:03:46;;;;;;;22.85;5.45;;;8.20;99.90;;;;;;5029804;28;20513;-57
2023/05/27 03:06:11;;;;;;;16.98;4.70;;;8.20;99.90;;;;;;5030858;28;20106;-59
2023/05/27 03:08:37;;;;;;;20.17;5.32;;;8.20;99.90;;;;;;5038080;28;20048;-56
2023/05/27 03:11:03;;;;;;;21.83;5.55;;;8.20;99.90;;;;;;5037972;28;20142;-57
2023/05/27 03:13:28;;;;;;;22.48;5.22;;;8.20;99.90;;;;;;5034569;28;20041;-57
2023/05/27 03:15:54;;;;;;;19.08;5.25;;;8.20;99.90;;;;;;5036322;28;20072;-58
2023/05/27 03:18:20;;;;;;;22.23;5.95;;;8.20;99.90;;;;;;5022178;28;20067;-57
2023/05/27 03:20:47;;;;;;;20.30;5.38;;;8.20;99.90;;;;;;5034726;28;20160;-56
2023/05/27 03:23:12;;;;;;;21.65;5.70;;;8.20;99.90;;;;;;5032969;28;20056;-58
2023/05/27 03:25:38;;;;;;;16.90;5.60;;;8.20;99.90;;;;;;5021065;28;20041;-57
2023/05/27 03:28:04;;;;;;;19.55;5.53;;;8.20;99.90;;;;;;5042168;28;20049;-57
2023/05/27 03:30:30;;;;;;;13.00;4.78;;;8.30;99.90;;;;;;5035901;28;20036;-56
2023/05/27 03:32:56;;;;;;;17.45;5.18;;;8.30;99.90;;;;;;5038000;28;20131;-58
2023/05/27 03:35:22;;;;;;;16.55;4.93;;;8.30;99.90;;;;;;5035746;28;20197;-58
2023/05/27 03:37:47;;;;;;;18.38;5.32;;;8.40;99.90;;;;;;5037214;28;20190;-57
2023/05/27 03:40:13;;;;;;;18.70;5.93;;;8.40;99.90;;;;;;5035006;28;20037;-57
2023/05/27 03:42:39;;;;;;;22.98;5.78;;;8.40;99.90;;;;;;5033700;28;20041;-56
2023/05/27 03:45:05;;;;;;;21.38;5.63;;;8.40;99.90;;;;;;5031471;28;20040;-57
2023/05/27 03:47:31;;;;;;;21.88;6.20;;;8.40;99.90;;;;;;5035328;28;20037;-58
2023/05/27 03:49:56;;;;;;;19.50;5.57;;;8.50;99.90;;;;;;5035328;28;20044;-58
2023/05/27 03:52:22;;;;;;;23.75;5.90;;;8.50;99.90;;;;;;5032746;28;20092;-57
2023/05/27 03:54:48;;;;;;;21.60;5.50;;;8.50;99.90;;;;;;5030382;28;20094;-58
2023/05/27 03:57:14;;;;;;;17.58;6.03;;;8.60;99.90;;;;;;5038260;28;20502;-58
2023/05/27 03:59:40;;;;;;;21.63;5.35;;;8.60;99.90;;;;;;5037919;28;20041;-57
2023/05/27 04:02:05;;;;;;;28.50;5.68;;;8.70;99.90;;;;;;5042086;28;20033;-57
2023/05/27 04:04:31;;;;;;;26.88;5.43;;;8.80;99.90;;;;;;5032223;28;20057;-57
2023/05/27 04:06:57;;;;;;;22.23;5.13;;;8.80;99.90;;;;;;5033742;28;21423;-57
2023/05/27 04:09:23;;;;;;;21.85;6.05;;;8.90;99.90;;;;;;5036011;28;20029;-57
2023/05/27 04:11:49;;;;;;;17.65;5.18;;;9.00;99.90;;;;;;5040627;28;20072;-58
2023/05/27 04:14:14;;;;;;;20.67;5.38;;;9.00;99.90;;;;;;5043602;28;20067;-57
2023/05/27 04:16:41;;;;;;;19.80;5.97;;;9.00;99.90;;;;;;5036360;28;20048;-57
2023/05/27 04:19:07;;;;;;;22.98;6.10;;;9.10;99.90;;;;;;5035413;28;20057;-57
2023/05/27 04:21:33;;;;;;;24.02;6.55;;;9.10;99.90;;;;;;5033701;28;20046;-57
2023/05/27 04:23:59;;;;;;;26.13;5.72;;;9.20;99.90;;;;;;5039726;28;20529;-57
2023/05/27 04:26:26;;;;;;;22.10;5.22;;;9.20;99.90;;;;;;5037397;28;20064;-58
2023/05/27 04:28:52;;;;;;;18.60;5.15;;;9.20;99.90;;;;;;5029808;28;20216;-57
2023/05/27 04:31:17;;;;;;;26.00;6.30;;;9.20;99.90;;;;;;5035580;28;20041;-57
2023/05/27 04:33:44;;;;;;;20.55;5.57;;;9.20;99.90;;;;;;5036453;28;20045;-57
2023/05/27 04:36:10;;;;;;;19.63;5.43;;;9.20;99.90;;;;;;5025434;28;20049;-58
2023/05/27 04:38:36;;;;;;;23.10;6.10;;;9.30;99.90;;;;;;5037134;28;20513;-57
2023/05/27 04:41:02;;;;;;;25.33;5.60;;;9.30;99.90;;;;;;5038340;28;20050;-56
2023/05/27 04:43:29;;;;;;;21.77;5.63;;;9.30;99.90;;;;;;5031121;28;20045;-58
2023/05/27 04:46:02;;;;;;;21.55;5.60;;;9.30;99.90;;;;;;5038521;28;20037;-58
2023/05/27 04:48:28;;;;;;;19.35;5.45;;;9.30;99.90;;;;;;5036051;28;20704;-57
2023/05/27 04:50:54;;;;;;;20.08;5.57;;;9.40;99.90;;;;;;5031996;28;20076;-57
2023/05/27 04:53:21;;;;;;;20.42;5.40;;;9.40;99.90;;;;;;5037501;28;20519;-57
2023/05/27 04:55:47;;;;;;;23.77;5.45;;;9.40;99.90;;;;;;5034778;28;20124;-57
2023/05/27 04:58:12;;;;;;;21.42;5.30;;;9.40;99.90;;;;;;5037281;28;20132;-58
2023/05/27 05:00:49;;;;;;;19.60;5.22;;;9.40;99.90;;;;;;5020469;28;20053;-57
2023/05/27 05:03:21;;;;;;;24.70;5.47;;;9.40;99.90;;;;;;5019580;28;20047;-56
2023/05/27 05:05:51;;;;;;;25.00;5.05;;;9.40;99.90;;;;;;5038196;28;20405;-58
2023/05/27 05:08:18;;;;;;;27.75;5.13;;;9.40;99.90;;;;;;5035915;28;20046;-58
2023/05/27 05:10:46;;;;;;;28.58;6.03;;;9.40;99.90;;;;;;5034320;28;20038;-57
2023/05/27 05:13:12;;;;;;;19.40;4.80;;;9.50;99.90;;;;;;5037046;28;20488;-57
2023/05/27 05:15:38;;;;;;;19.70;5.13;;;9.50;99.90;;;;;;5037571;28;20076;-57
2023/05/27 05:18:04;;;;;;;19.27;5.53;;;9.50;99.90;;;;;;5036319;28;20087;-57
2023/05/27 05:20:30;;;;;;;21.40;5.50;;;9.50;99.90;;;;;;5029651;28;20994;-58
2023/05/27 05:22:56;;;;;;;17.67;5.53;;;9.60;99.90;;;;;;5032114;28;20086;-58
2023/05/27 05:25:21;;;;;;;23.70;5.78;;;9.60;99.90;;;;;;5030955;28;20045;-56
2023/05/27 05:27:47;;;;;;;24.13;5.97;;;9.60;99.90;;;;;;5034303;28;20076;-56
2023/05/27 05:30:13;;;;;;;19.15;5.30;;;9.70;99.90;;;;;;5029319;28;20083;-57
2023/05/27 05:32:39;;;;;;;21.48;5.65;;;9.70;99.90;;;;;;5038093;28;20160;-56
2023/05/27 05:35:05;;;;;;;19.13;5.28;;;9.80;99.90;;;;;;5022177;28;20543;-57
2023/05/27 05:37:30;;;;;;;20.23;5.82;;;9.80;99.90;;;;;;5030731;28;20489;-57
2023/05/27 05:39:56;;;;;;;23.05;5.82;;;9.90;99.90;;;;;;5027108;28;20127;-58
2023/05/27 05:42:24;;;;;;;18.30;5.22;;;10.00;99.90;;;;;;5029516;28;20079;-58
2023/05/27 05:44:49;;;;;;;23.08;5.65;;;10.00;99.90;;;;;;5022301;28;20477;-57
2023/05/27 05:47:15;;;;;;;22.83;5.78;;;10.00;99.90;;;;;;5027894;28;20116;-55
2023/05/27 05:49:41;;;;;;;25.88;5.47;;;10.10;99.90;;;;;;5029176;28;20124;-57
2023/05/27 05:52:07;;;;;;;18.50;5.60;;;10.20;99.90;;;;;;5030903;28;20121;-58
2023/05/27 05:54:32;;;;;;;17.85;5.65;;;10.20;99.90;;;;;;5022175;28;20042;-58
2023/05/27 05:57:00;;;;;;;28.30;6.20;;;10.30;99.90;;;;;;5024709;28;20091;-58
2023/05/27 05:59:26;;;;;;;26.60;6.10;;;10.40;99.90;;;;;;5021999;28;20036;-60
2023/05/27 06:01:51;;;;;;;20.92;5.50;;;10.40;99.90;;;;;;5020288;28;20047;-67
2023/05/27 06:04:17;;;;;;;28.30;6.07;;;10.50;99.90;;;;;;5030826;28;20064;-66
2023/05/27 06:06:43;;;;;;;24.90;5.93;;;10.60;99.90;;;;;;5035175;28;20555;-66
2023/05/27 06:09:08;;;;;;;23.80;5.55;;;10.70;99.90;;;;;;5030960;28;20052;-66
2023/05/27 06:11:34;;;;;;;26.90;5.90;;;10.70;99.90;;;;;;5038324;28;20037;-67
2023/05/27 06:14:00;;;;;;;19.40;5.85;;;10.80;99.90;;;;;;5035204;28;20078;-66
2023/05/27 06:16:26;;;;;;;25.23;6.47;;;10.80;99.90;;;;;;5018919;28;20040;-66
2023/05/27 06:18:51;;;;;;;17.20;5.03;;;10.90;99.90;;;;;;5038575;28;20076;-67
2023/05/27 06:21:17;;;;;;;27.05;5.57;;;11.00;99.90;;;;;;5021099;28;20049;-67
2023/05/27 06:23:43;;;;;;;27.17;5.57;;;11.10;99.90;;;;;;5037271;28;20079;-66
2023/05/27 06:26:09;;;;;;;22.25;5.75;;;11.10;99.90;;;;;;5036399;28;20524;-66
2023/05/27 06:28:35;;;;;;;26.50;5.75;;;11.20;99.90;;;;;;5025477;28;20524;-67
2023/05/27 06:31:00;;;;;;;23.30;6.35;;;11.20;99.90;;;;;;5033683;28;20049;-67
2023/05/27 06:33:26;;;;;;;21.55;5.53;;;11.20;99.90;;;;;;5035108;28;20515;-66
2023/05/27 06:35:52;;;;;;;27.17;6.05;;;11.40;99.90;;;;;;5041427;28;20137;-67
2023/05/27 06:38:17;;;;;;;29.05;5.85;;;11.50;99.90;;;;;;5032287;28;20136;-66
2023/05/27 06:40:43;;;;;;;23.40;5.72;;;11.60;99.90;;;;;;5022603;28;20052;-67
2023/05/27 06:43:09;;;;;;;25.55;6.28;;;11.70;99.90;;;;;;5020197;28;20037;-67
2023/05/27 06:45:35;;;;;;;22.80;6.00;;;11.70;99.90;;;;;;5018480;28;21140;-66
2023/05/27 06:48:00;;;;;;;25.50;5.78;;;11.80;99.90;;;;;;5016418;28;20159;-66
2023/05/27 06:50:26;;;;;;;23.98;6.22;;;11.80;99.90;;;;;;5022084;28;20141;-67
2023/05/27 06:52:52;;;;;;;28.38;6.00;;;11.90;99.90;;;;;;5021246;28;20082;-67
2023/05/27 06:55:18;;;;;;;29.05;5.88;;;11.90;99.90;;;;;;5001238;28;20067;-67
2023/05/27 06:57:44;;;;;;;24.23;6.03;;;12.00;99.90;;;;;;5019294;28;20077;-67
2023/05/27 07:00:10;;;;;;;25.83;6.32;;;12.00;99.90;;;;;;5018775;28;20127;-67
2023/05/27 07:02:36;;;;;;;24.83;5.70;;;12.10;99.90;;;;;;5030431;28;20443;-66
2023/05/27 07:05:02;;;;;;;24.63;5.45;;;12.10;99.90;;;;;;5020349;28;20057;-67
2023/05/27 07:07:28;;;;;;;25.95;6.43;;;12.20;99.90;;;;;;5021593;28;20052;-67
2023/05/27 07:09:53;;;;;;;24.08;6.18;;;12.20;99.90;;;;;;5018997;28;20055;-67
2023/05/27 07:12:19;;;;;;;25.23;6.38;;;12.40;99.90;;;;;;5006486;28;20053;-67
2023/05/27 07:14:45;;;;;;;22.60;5.07;;;12.50;99.90;;;;;;5022230;28;20382;-67
2023/05/27 07:17:11;;;;;;;20.02;5.43;;;12.50;99.90;;;;;;5003044;28;20033;-67
2023/05/27 07:19:37;;;;;;;21.60;5.78;;;12.60;99.90;;;;;;5023589;28;20865;-67
2023/05/27 07:22:03;;;;;;;29.00;6.28;;;12.70;99.90;;;;;;5032145;28;20090;-67
2023/05/27 07:24:29;;;;;;;27.00;5.35;;;12.70;99.90;;;;;;5001507;28;20556;-66
2023/05/27 07:26:55;;;;;;;26.52;6.00;;;12.80;99.90;;;;;;5058644;28;20037;-67
2023/05/27 07:29:21;;;;;;;33.67;6.15;;;12.80;99.90;;;;;;5018564;28;20053;-66
2023/05/27 07:31:47;;;;;;;22.45;6.30;;;12.90;99.90;;;;;;5022847;28;20045;-67
2023/05/27 07:34:12;;;;;;;23.15;5.55;;;13.00;99.90;;;;;;5044148;28;20477;-67
2023/05/27 07:36:38;;;;;;;21.92;5.97;;;13.20;99.90;;;;;;5027862;28;20089;-67
2023/05/27 07:39:04;;;;;;;30.83;6.18;;;13.20;99.90;;;;;;5028082;28;20041;-67
2023/05/27 07:41:30;;;;;;;26.00;6.15;;;13.30;99.90;;;;;;5047493;28;20401;-67
2023/05/27 07:43:56;;;;;;;22.75;5.95;;;13.40;99.90;;;;;;5043477;28;20041;-67
2023/05/27 07:46:22;;;;;;;30.73;6.70;;;13.50;99.90;;;;;;5026991;28;20041;-67
2023/05/27 07:48:48;;;;;;;23.02;6.15;;;13.60;99.90;;;;;;5021501;28;20123;-66
2023/05/27 07:51:14;;;;;;;23.90;5.53;;;13.70;99.90;;;;;;5028600;28;20174;-67
2023/05/27 07:53:39;;;;;;;25.67;6.07;;;14.00;99.90;;;;;;5034457;28;20060;-67
2023/05/27 07:56:05;;;;;;;22.70;5.57;;;14.10;99.90;;;;;;5015936;28;20060;-67
2023/05/27 07:58:31;;;;;;;20.83;5.00;;;14.10;99.90;;;;;;5026554;28;20135;-67
2023/05/27 08:00:57;;;;;;;20.98;5.70;;;14.10;99.90;;;;;;5030680;28;20048;-67
2023/05/27 08:03:22;;;;;;;25.13;6.00;;;14.20;99.90;;;;;;5041868;28;20064;-67
2023/05/27 08:05:48;;;;;;;20.50;6.40;;;14.40;99.90;;;;;;5029802;28;20090;-67
2023/05/27 08:08:15;;;;;;;16.60;5.72;;;14.50;99.90;;;;;;5046410;28;20080;-67
2023/05/27 08:10:40;;;;;;;19.98;5.53;;;14.50;99.90;;;;;;5029820;28;20056;-67
2023/05/27 08:13:06;;;;;;;22.48;6.00;;;14.60;99.90;;;;;;5025318;28;20044;-67
2023/05/27 08:15:32;;;;;;;23.17;6.55;;;14.70;99.90;;;;;;5040621;28;20037;-67
2023/05/27 08:17:58;;;;;;;19.23;5.60;;;14.80;99.90;;;;;;5028315;28;20072;-67
2023/05/27 08:20:23;;;;;;;19.92;5.70;;;14.80;99.90;;;;;;5029472;28;20048;-67
2023/05/27 08:22:49;;;;;;;19.15;6.20;;;15.00;99.90;;;;;;5024059;28;20574;-67
2023/05/27 08:25:16;;;;;;;24.20;7.18;;;15.20;99.90;;;;;;5022635;28;20037;-67
2023/05/27 08:27:51;;;;;;;19.20;5.82;;;15.40;99.90;;;;;;5044485;28;20118;-68
2023/05/27 08:30:18;;;;;;;22.67;6.03;;;15.40;99.90;;;;;;5046980;28;20041;-67
2023/05/27 08:32:44;;;;;;;18.15;5.90;;;15.60;99.90;;;;;;5038607;28;20198;-67
2023/05/27 08:35:13;;;;;;;22.33;6.00;;;15.70;99.90;;;;;;5039697;28;20048;-67
2023/05/27 08:37:40;;;;;;;18.98;5.68;;;15.80;99.90;;;;;;5039662;28;20079;-68
2023/05/27 08:40:10;;;;;;;30.42;6.35;;;15.90;99.90;;;;;;5037037;28;20102;-67
2023/05/27 08:42:36;;;;;;;24.48;5.85;;;16.00;99.90;;;;;;5043754;28;20072;-68
2023/05/27 08:45:03;;;;;;;19.17;5.25;;;16.00;99.90;;;;;;5050590;28;20817;-67
2023/05/27 08:47:30;;;;;;;19.58;6.28;;;16.00;99.90;;;;;;5024679;28;20527;-68
2023/05/27 08:49:58;;;;;;;21.67;5.70;;;16.10;99.90;;;;;;5036223;28;20055;-67
2023/05/27 08:52:25;;;;;;;25.38;5.97;;;16.10;99.90;;;;;;5037583;28;20080;-67
2023/05/27 08:54:52;;;;;;;22.02;5.72;;;16.00;99.90;;;;;;5022133;28;20090;-67
2023/05/27 08:57:21;;;;;;;22.30;6.10;;;16.00;99.90;;;;;;5041024;28;21010;-68
2023/05/27 08:59:47;;;;;;;20.27;5.68;;;16.20;99.90;;;;;;5038676;28;20393;-67
2023/05/27 09:02:14;;;;;;;24.05;6.53;;;16.30;99.90;;;;;;5022943;28;20512;-68
2023/05/27 09:04:41;;;;;;;23.42;6.47;;;16.30;99.90;;;;;;5032230;28;20136;-68
2023/05/27 09:07:07;;;;;;;21.77;5.60;;;16.50;99.90;;;;;;5030910;28;20053;-68
2023/05/27 09:09:33;;;;;;;21.08;5.50;;;16.60;99.90;;;;;;5021667;28;20037;-68
2023/05/27 09:12:03;;;;;;;17.58;5.72;;;16.70;99.90;;;;;;5043084;28;20041;-68
2023/05/27 09:14:29;;;;;;;21.20;5.93;;;16.80;99.90;;;;;;5035925;28;20056;-68
2023/05/27 09:16:56;;;;;;;19.48;5.20;;;16.90;99.90;;;;;;5033782;28;20041;-68
2023/05/27 09:19:22;;;;;;;17.80;5.68;;;17.10;99.90;;;;;;5040477;28;20077;-68
2023/05/27 09:21:56;;;;;;;22.05;5.45;;;17.10;99.90;;;;;;5034381;28;20562;-68
2023/05/27 09:24:24;;;;;;;22.33;5.93;;;17.20;99.90;;;;;;5020549;28;20041;-68
2023/05/27 09:26:54;;;;;;;19.45;5.55;;;17.30;99.90;;;;;;5040270;28;20079;-68
2023/05/27 09:29:25;;;;;;;22.02;5.68;;;17.40;99.90;;;;;;5011387;28;20042;-69
2023/05/27 09:31:56;;;;;;;21.00;5.43;;;17.60;99.90;;;;;;5034487;28;20110;-68
2023/05/27 09:34:22;;;;;;;15.23;5.40;;;17.60;99.90;;;;;;5022013;28;20044;-68
2023/05/27 09:36:50;;;;;;;18.15;6.13;;;17.70;99.90;;;;;;5037137;28;20041;-68
2023/05/27 09:39:18;;;;;;;22.48;6.18;;;17.80;99.80;;;;;;5031049;28;20520;-68
2023/05/27 09:41:43;;;;;;;20.40;5.88;;;17.80;99.60;;;;;;5038816;28;20163;-68
2023/05/27 09:44:09;;;;;;;19.45;5.50;;;17.80;99.60;;;;;;5038516;28;20055;-68
2023/05/27 09:46:36;;;;;;;18.63;5.80;;;17.90;99.60;;;;;;5020351;28;20386;-69
2023/05/27 09:49:05;;;;;;;14.60;5.80;;;18.00;99.70;;;;;;5022974;28;20145;-68
2023/05/27 09:51:32;;;;;;;22.60;5.97;;;18.20;99.60;;;;;;5041645;28;20060;-68
2023/05/27 09:53:58;;;;;;;22.63;5.90;;;18.30;99.40;;;;;;5022821;28;20037;-68
2023/05/27 09:56:29;;;;;;;16.50;5.38;;;18.30;99.20;;;;;;5037358;28;20052;-68
2023/05/27 09:58:57;;;;;;;20.13;6.05;;;18.50;99.30;;;;;;5036376;28;20495;-68
2023/05/27 10:01:28;;;;;;;16.08;5.22;;;18.60;99.30;;;;;;5019700;28;20481;-68
2023/05/27 10:03:58;;;;;;;17.42;5.53;;;18.60;98.50;;;;;;5021979;28;20071;-68
2023/05/27 10:06:25;;;;;;;16.23;4.72;;;18.70;98.40;;;;;;5039272;28;20067;-68
2023/05/27 10:08:58;;;;;;;23.15;5.53;;;18.80;98.50;;;;;;5027111;28;20413;-68
2023/05/27 10:11:26;;;;;;;18.70;5.55;;;18.90;98.20;;;;;;5038618;28;20036;-68
2023/05/27 10:13:52;;;;;;;18.05;5.35;;;18.90;97.80;;;;;;5036140;28;20496;-68
2023/05/27 10:16:27;;;;;;;18.15;5.30;;;19.00;98.00;;;;;;5029318;28;20044;-68
2023/05/27 10:18:57;;;;;;;16.63;4.75;;;19.20;97.70;;;;;;5038600;28;21565;-69
2023/05/27 10:21:26;;;;;;;18.08;5.05;;;19.30;97.60;;;;;;5038195;28;20058;-68
2023/05/27 10:24:00;;;;;;;19.58;6.00;;;19.50;97.70;;;;;;5023322;28;20043;-68
2023/05/27 10:26:47;;;;;;;19.23;6.28;;;19.70;96.90;;;;;;5040069;28;20688;-68
2023/05/27 10:29:15;;;;;;;15.65;5.30;;;19.80;97.00;;;;;;5032689;28;20072;-68
2023/05/27 10:31:50;;;;;;;18.77;5.25;;;19.80;96.50;;;;;;5017135;28;20076;-69
2023/05/27 10:34:16;;;;;;;21.98;6.35;;;19.90;96.00;;;;;;5035893;28;20132;-69
2023/05/27 10:36:44;;;;;;;23.40;5.63;;;19.90;95.60;;;;;;5026125;28;20041;-62
2023/05/27 10:39:19;;;;;;;18.88;5.13;;;19.90;95.40;;;;;;5035319;28;20120;-65
2023/05/27 10:41:53;;;;;;;19.77;5.07;;;20.00;95.00;;;;;;5035627;28;20040;-64
2023/05/27 10:44:39;;;;;;;15.50;5.40;;;20.10;94.90;;;;;;5025813;28;20076;-65
2023/05/27 10:47:10;;;;;;;17.85;5.50;;;20.20;95.40;;;;;;5027546;28;20166;-65
2023/05/27 10:49:38;;;;;;;20.40;5.85;;;20.40;94.40;;;;;;5030071;28;20143;-65
2023/05/27 10:52:14;;;;;;;17.60;4.97;;;20.40;94.30;;;;;;5030187;28;20165;-65
2023/05/27 10:54:48;;;;;;;16.75;5.40;;;20.60;94.70;;;;;;5030724;28;20048;-66
2023/05/27 10:57:14;;;;;;;21.60;5.65;;;20.60;94.30;;;;;;5033838;28;20053;-65
2023/05/27 10:59:55;;;;;;;21.33;5.20;;;20.70;93.00;;;;;;5008198;28;20049;-65
2023/05/27 11:02:21;;;;;;;16.40;4.70;;;20.80;93.80;;;;;;5025868;28;20048;-65
2023/05/27 11:04:51;;;;;;;14.68;5.35;;;20.90;93.90;;;;;;4989961;28;20060;-67
2023/05/27 11:07:22;;;;;;;17.08;5.28;;;21.00;93.30;;;;;;5018237;28;20043;-67
2023/05/27 11:09:55;;;;;;;19.33;5.65;;;21.00;92.30;;;;;;5017714;28;20057;-66
2023/05/27 11:12:22;;;;;;;16.90;5.47;;;21.10;93.40;;;;;;5019723;28;20403;-67
2023/05/27 11:14:49;;;;;;;20.00;5.30;;;21.20;92.60;;;;;;5036551;28;20049;-64
2023/05/27 11:17:16;;;;;;;22.35;5.30;;;21.30;92.90;;;;;;5021492;28;20049;-74
2023/05/27 11:19:42;;;;;;;16.75;5.55;;;21.30;91.90;;;;;;5032643;28;20043;-77
2023/05/27 11:22:09;;;;;;;21.05;5.82;;;21.40;91.90;;;;;;5033909;28;20548;-73
2023/05/27 11:24:36;;;;;;;18.70;5.50;;;21.50;91.00;;;;;;5020249;28;20036;-74
2023/05/27 11:27:13;;;;;;;16.67;4.78;;;21.60;90.50;;;;;;5019679;28;20060;-73
2023/05/27 11:29:39;;;;;;;18.77;5.85;;;21.70;90.50;;;;;;5034021;28;20060;-75
2023/05/27 11:32:06;;;;;;;23.10;5.68;;;21.70;90.80;;;;;;5030575;28;20116;-72
2023/05/27 11:34:35;;;;;;;43.65;14.27;;;21.70;90.60;;;;;;5032688;28;20106;-74
2023/05/27 11:37:05;;;;;;;24.25;6.30;;;21.70;90.10;;;;;;5032699;28;20045;-73
2023/05/27 11:39:31;;;;;;;19.67;5.38;;;21.80;88.70;;;;;;5019076;28;20041;-73
2023/05/27 11:41:58;;;;;;;24.58;6.10;;;21.70;89.20;;;;;;5003499;28;20089;-73
2023/05/27 11:44:25;;;;;;;21.95;6.13;;;21.80;88.40;;;;;;5017804;28;20048;-72
2023/05/27 11:46:57;;;;;;;14.25;5.13;;;21.80;87.70;;;;;;5006827;28;20135;-73
2023/05/27 11:49:23;;;;;;;21.15;5.88;;;21.90;85.50;;;;;;5016328;28;20060;-74
2023/05/27 11:51:55;;;;;;;17.38;5.57;;;21.90;84.90;;;;;;5027582;28;20045;-72
2023/05/27 11:54:27;;;;;;;15.88;5.18;;;22.00;85.60;;;;;;5012880;28;20116;-72
2023/05/27 11:56:54;;;;;;;18.92;5.43;;;22.10;85.40;;;;;;5025935;28;20041;-72
2023/05/27 11:59:21;;;;;;;18.75;5.55;;;22.00;83.10;;;;;;5028722;28;20052;-72
2023/05/27 12:01:47;;;;;;;15.35;5.95;;;22.10;82.70;;;;;;5023525;28;20370;-74
2023/05/27 12:04:13;;;;;;;13.88;5.20;;;22.10;82.60;;;;;;5024809;28;20069;-75
2023/05/27 12:06:40;;;;;;;13.25;5.20;;;22.30;83.70;;;;;;5010978;28;20059;-74
2023/05/27 12:09:08;;;;;;;15.82;5.25;;;22.50;81.60;;;;;;5014643;28;20092;-73
2023/05/27 12:11:34;;;;;;;17.50;6.25;;;22.60;80.30;;;;;;5028925;28;20040;-73
2023/05/27 12:14:01;;;;;;;17.30;5.55;;;22.70;80.60;;;;;;5004138;28;20045;-74
2023/05/27 12:16:27;;;;;;;21.58;5.65;;;22.80;79.70;;;;;;5028076;28;20116;-74
2023/05/27 12:18:53;;;;;;;17.50;5.57;;;22.80;78.70;;;;;;4998838;28;20032;-75
2023/05/27 12:21:19;;;;;;;17.52;5.75;;;22.70;80.30;;;;;;5034251;28;20033;-67
2023/05/27 12:23:46;;;;;;;21.77;5.43;;;22.80;79.40;;;;;;5012828;28;20029;-66
2023/05/27 12:26:13;;;;;;;15.90;5.53;;;22.80;78.50;;;;;;5017017;28;20037;-79
2023/05/27 12:28:39;;;;;;;19.00;5.38;;;22.80;77.00;;;;;;4999563;28;20072;-73
2023/05/27 12:31:05;;;;;;;14.80;5.22;;;22.90;78.10;;;;;;5004760;28;20080;-74
2023/05/27 12:33:31;;;;;;;17.90;5.50;;;23.00;77.10;;;;;;5014487;28;20045;-69
2023/05/27 12:35:57;;;;;;;13.43;5.10;;;23.20;76.60;;;;;;5015870;28;20036;-69
2023/05/27 12:38:23;;;;;;;18.13;4.90;;;23.30;75.90;;;;;;5013715;28;20045;-80
2023/05/27 12:40:50;;;;;;;13.60;4.97;;;23.40;75.40;;;;;;5015249;28;21308;-72